sensor_id;sensor_type;location;lat;lon;timestamp;temperature;humidity
70234;DHT22;57622;42.630;23.378;2022-08-21T00:00:28;21.92;72.75
70234;DHT22;57622;42.630;23.378;2022-08-21T00:02:57;21.85;72.22
70234;DHT22;57622;42.630;23.378;2022-08-21T00:05:23;21.94;71.95
70234;DHT22;57622;42.630;23.378;2022-08-21T00:07:49;22.03;71.66
70234;DHT22;57622;42.630;23.378;2022-08-21T00:10:16;22.15;71.40
70234;DHT22;57622;42.630;23.378;2022-08-21T00:12:42;21.91;71.87
70234;DHT22;57622;42.630;23.378;2022-08-21T00:15:14;21.78;72.78
70234;DHT22;57622;42.630;23.378;2022-08-21T00:17:40;21.79;72.44
70234;DHT22;57622;42.630;23.378;2022-08-21T00:20:08;21.66;72.43
70234;DHT22;57622;42.630;23.378;2022-08-21T00:22:34;21.68;72.43
70234;DHT22;57622;42.630;23.378;2022-08-21T00:25:01;21.74;72.51
70234;DHT22;57622;42.630;23.378;2022-08-21T00:27:27;21.81;72.26
70234;DHT22;57622;42.630;23.378;2022-08-21T00:29:52;21.71;71.53
70234;DHT22;57622;42.630;23.378;2022-08-21T00:32:23;21.62;72.56
70234;DHT22;57622;42.630;23.378;2022-08-21T00:34:49;21.73;72.37
70234;DHT22;57622;42.630;23.378;2022-08-21T00:37:15;21.66;71.96
70234;DHT22;57622;42.630;23.378;2022-08-21T00:39:41;21.58;71.96
70234;DHT22;57622;42.630;23.378;2022-08-21T00:42:07;21.54;71.97
70234;DHT22;57622;42.630;23.378;2022-08-21T00:44:33;21.51;71.71
70234;DHT22;57622;42.630;23.378;2022-08-21T00:46:58;21.54;71.44
70234;DHT22;57622;42.630;23.378;2022-08-21T00:49:23;21.51;72.50
70234;DHT22;57622;42.630;23.378;2022-08-21T00:51:51;21.55;72.65
70234;DHT22;57622;42.630;23.378;2022-08-21T00:54:21;21.54;72.57
70234;DHT22;57622;42.630;23.378;2022-08-21T00:56:51;21.62;71.88
70234;DHT22;57622;42.630;23.378;2022-08-21T00:59:19;21.57;72.30
70234;DHT22;57622;42.630;23.378;2022-08-21T01:01:45;21.58;73.06
70234;DHT22;57622;42.630;23.378;2022-08-21T01:04:11;21.54;72.61
70234;DHT22;57622;42.630;23.378;2022-08-21T01:06:37;21.55;72.36
70234;DHT22;57622;42.630;23.378;2022-08-21T01:09:03;21.62;71.76
70234;DHT22;57622;42.630;23.378;2022-08-21T01:11:29;21.64;72.32
70234;DHT22;57622;42.630;23.378;2022-08-21T01:13:54;21.58;72.25
70234;DHT22;57622;42.630;23.378;2022-08-21T01:16:21;21.51;72.24
70234;DHT22;57622;42.630;23.378;2022-08-21T01:18:48;21.45;72.39
70234;DHT22;57622;42.630;23.378;2022-08-21T01:21:21;21.53;72.13
70234;DHT22;57622;42.630;23.378;2022-08-21T01:23:50;21.53;72.59
70234;DHT22;57622;42.630;23.378;2022-08-21T01:26:16;21.50;72.14
70234;DHT22;57622;42.630;23.378;2022-08-21T01:28:47;21.50;71.98
70234;DHT22;57622;42.630;23.378;2022-08-21T01:31:15;21.53;71.79
70234;DHT22;57622;42.630;23.378;2022-08-21T01:33:42;21.57;72.03
70234;DHT22;57622;42.630;23.378;2022-08-21T01:36:08;21.62;71.51
70234;DHT22;57622;42.630;23.378;2022-08-21T01:38:33;21.64;71.24
70234;DHT22;57622;42.630;23.378;2022-08-21T01:40:59;21.40;72.81
70234;DHT22;57622;42.630;23.378;2022-08-21T01:43:24;21.19;73.59
70234;DHT22;57622;42.630;23.378;2022-08-21T01:45:50;21.30;73.37
70234;DHT22;57622;42.630;23.378;2022-08-21T01:48:16;21.20;73.51
70234;DHT22;57622;42.630;23.378;2022-08-21T01:50:41;21.07;74.27
70234;DHT22;57622;42.630;23.378;2022-08-21T01:53:07;21.13;74.10
70234;DHT22;57622;42.630;23.378;2022-08-21T01:55:33;21.04;74.45
70234;DHT22;57622;42.630;23.378;2022-08-21T01:57:59;21.26;73.93
70234;DHT22;57622;42.630;23.378;2022-08-21T02:00:25;20.95;74.65
70234;DHT22;57622;42.630;23.378;2022-08-21T02:02:51;21.08;74.33
70234;DHT22;57622;42.630;23.378;2022-08-21T02:05:17;21.00;74.56
70234;DHT22;57622;42.630;23.378;2022-08-21T02:07:47;20.42;76.52
70234;DHT22;57622;42.630;23.378;2022-08-21T02:10:15;20.38;76.56
70234;DHT22;57622;42.630;23.378;2022-08-21T02:12:41;20.47;76.36
70234;DHT22;57622;42.630;23.378;2022-08-21T02:15:07;20.44;76.35
70234;DHT22;57622;42.630;23.378;2022-08-21T02:17:44;20.48;76.24
70234;DHT22;57622;42.630;23.378;2022-08-21T02:20:11;20.48;76.40
70234;DHT22;57622;42.630;23.378;2022-08-21T02:22:39;20.55;75.91
70234;DHT22;57622;42.630;23.378;2022-08-21T02:25:05;20.76;75.12
70234;DHT22;57622;42.630;23.378;2022-08-21T02:27:41;20.64;75.43
70234;DHT22;57622;42.630;23.378;2022-08-21T02:30:11;20.47;76.16
70234;DHT22;57622;42.630;23.378;2022-08-21T02:32:37;20.34;75.99
70234;DHT22;57622;42.630;23.378;2022-08-21T02:35:03;20.21;75.83
70234;DHT22;57622;42.630;23.378;2022-08-21T02:37:29;20.13;76.45
70234;DHT22;57622;42.630;23.378;2022-08-21T02:39:55;20.42;75.84
70234;DHT22;57622;42.630;23.378;2022-08-21T02:42:20;20.28;75.94
70234;DHT22;57622;42.630;23.378;2022-08-21T02:44:46;20.14;76.27
70234;DHT22;57622;42.630;23.378;2022-08-21T02:47:11;19.91;76.57
70234;DHT22;57622;42.630;23.378;2022-08-21T02:49:38;19.79;76.79
70234;DHT22;57622;42.630;23.378;2022-08-21T02:52:04;19.83;76.65
70234;DHT22;57622;42.630;23.378;2022-08-21T02:54:31;19.83;76.33
70234;DHT22;57622;42.630;23.378;2022-08-21T02:56:56;19.79;76.14
70234;DHT22;57622;42.630;23.378;2022-08-21T02:59:22;19.70;76.41
70234;DHT22;57622;42.630;23.378;2022-08-21T03:01:47;19.62;76.71
70234;DHT22;57622;42.630;23.378;2022-08-21T03:04:13;19.74;76.49
70234;DHT22;57622;42.630;23.378;2022-08-21T03:06:38;19.79;76.33
70234;DHT22;57622;42.630;23.378;2022-08-21T03:09:04;19.74;76.23
70234;DHT22;57622;42.630;23.378;2022-08-21T03:11:29;19.66;76.22
70234;DHT22;57622;42.630;23.378;2022-08-21T03:13:55;19.77;76.24
70234;DHT22;57622;42.630;23.378;2022-08-21T03:16:20;19.79;75.93
70234;DHT22;57622;42.630;23.378;2022-08-21T03:18:46;19.80;75.84
70234;DHT22;57622;42.630;23.378;2022-08-21T03:21:11;19.96;75.46
70234;DHT22;57622;42.630;23.378;2022-08-21T03:23:39;19.81;75.39
70234;DHT22;57622;42.630;23.378;2022-08-21T03:26:07;19.65;76.28
70234;DHT22;57622;42.630;23.378;2022-08-21T03:28:32;19.74;76.09
70234;DHT22;57622;42.630;23.378;2022-08-21T03:30:58;19.77;75.78
70234;DHT22;57622;42.630;23.378;2022-08-21T03:33:23;19.79;75.58
70234;DHT22;57622;42.630;23.378;2022-08-21T03:35:57;19.70;75.86
70234;DHT22;57622;42.630;23.378;2022-08-21T03:38:23;19.80;75.52
70234;DHT22;57622;42.630;23.378;2022-08-21T03:40:49;19.79;74.88
70234;DHT22;57622;42.630;23.378;2022-08-21T03:43:14;19.80;75.33
70234;DHT22;57622;42.630;23.378;2022-08-21T03:45:40;19.52;76.65
70234;DHT22;57622;42.630;23.378;2022-08-21T03:48:06;19.60;76.78
70234;DHT22;57622;42.630;23.378;2022-08-21T03:50:35;19.49;77.70
70234;DHT22;57622;42.630;23.378;2022-08-21T03:53:00;19.11;79.36
70234;DHT22;57622;42.630;23.378;2022-08-21T03:55:26;18.95;80.43
70234;DHT22;57622;42.630;23.378;2022-08-21T03:57:53;19.05;80.83
70234;DHT22;57622;42.630;23.378;2022-08-21T04:00:20;19.18;80.53
70234;DHT22;57622;42.630;23.378;2022-08-21T04:02:46;19.25;80.24
70234;DHT22;57622;42.630;23.378;2022-08-21T04:05:13;19.18;80.73
70234;DHT22;57622;42.630;23.378;2022-08-21T04:07:39;19.25;80.45
70234;DHT22;57622;42.630;23.378;2022-08-21T04:10:06;19.25;80.36
70234;DHT22;57622;42.630;23.378;2022-08-21T04:12:32;19.36;79.94
70234;DHT22;57622;42.630;23.378;2022-08-21T04:14:58;19.40;79.45
70234;DHT22;57622;42.630;23.378;2022-08-21T04:17:23;19.55;78.79
70234;DHT22;57622;42.630;23.378;2022-08-21T04:19:49;19.53;78.89
70234;DHT22;57622;42.630;23.378;2022-08-21T04:22:15;19.52;78.79
70234;DHT22;57622;42.630;23.378;2022-08-21T04:24:41;19.56;78.40
70234;DHT22;57622;42.630;23.378;2022-08-21T04:27:06;19.66;77.87
70234;DHT22;57622;42.630;23.378;2022-08-21T04:29:31;20.01;77.01
70234;DHT22;57622;42.630;23.378;2022-08-21T04:31:57;20.20;76.39
70234;DHT22;57622;42.630;23.378;2022-08-21T04:34:22;20.24;76.32
70234;DHT22;57622;42.630;23.378;2022-08-21T04:36:48;20.28;76.16
70234;DHT22;57622;42.630;23.378;2022-08-21T04:39:13;20.22;75.83
70234;DHT22;57622;42.630;23.378;2022-08-21T04:41:39;20.21;76.02
70234;DHT22;57622;42.630;23.378;2022-08-21T04:44:04;19.98;76.56
70234;DHT22;57622;42.630;23.378;2022-08-21T04:46:30;20.16;76.46
70234;DHT22;57622;42.630;23.378;2022-08-21T04:48:55;20.14;76.06
70234;DHT22;57622;42.630;23.378;2022-08-21T04:51:31;20.18;75.80
70234;DHT22;57622;42.630;23.378;2022-08-21T04:54:05;20.27;75.39
70234;DHT22;57622;42.630;23.378;2022-08-21T04:59:02;20.29;75.44
70234;DHT22;57622;42.630;23.378;2022-08-21T05:01:32;20.11;75.92
70234;DHT22;57622;42.630;23.378;2022-08-21T05:04:01;20.28;75.51
70234;DHT22;57622;42.630;23.378;2022-08-21T05:06:31;20.04;75.74
70234;DHT22;57622;42.630;23.378;2022-08-21T05:08:59;19.96;76.43
70234;DHT22;57622;42.630;23.378;2022-08-21T05:11:25;20.01;75.81
70234;DHT22;57622;42.630;23.378;2022-08-21T05:13:51;20.13;75.85
70234;DHT22;57622;42.630;23.378;2022-08-21T05:16:16;20.21;75.52
70234;DHT22;57622;42.630;23.378;2022-08-21T05:18:42;20.28;75.37
70234;DHT22;57622;42.630;23.378;2022-08-21T05:21:08;20.07;75.89
70234;DHT22;57622;42.630;23.378;2022-08-21T05:23:35;20.03;76.27
70234;DHT22;57622;42.630;23.378;2022-08-21T05:26:00;20.06;75.54
70234;DHT22;57622;42.630;23.378;2022-08-21T05:28:26;20.13;76.32
70234;DHT22;57622;42.630;23.378;2022-08-21T05:30:52;20.22;75.34
70234;DHT22;57622;42.630;23.378;2022-08-21T05:33:18;20.32;74.50
70234;DHT22;57622;42.630;23.378;2022-08-21T05:35:43;20.52;74.73
70234;DHT22;57622;42.630;23.378;2022-08-21T05:38:09;20.56;74.16
70234;DHT22;57622;42.630;23.378;2022-08-21T05:40:35;20.79;73.94
70234;DHT22;57622;42.630;23.378;2022-08-21T05:43:00;20.97;72.85
70234;DHT22;57622;42.630;23.378;2022-08-21T05:45:29;21.26;72.76
70234;DHT22;57622;42.630;23.378;2022-08-21T05:47:55;21.44;73.56
70234;DHT22;57622;42.630;23.378;2022-08-21T05:50:20;21.69;73.49
70234;DHT22;57622;42.630;23.378;2022-08-21T05:52:46;21.86;72.43
70234;DHT22;57622;42.630;23.378;2022-08-21T05:55:12;21.86;73.21
70234;DHT22;57622;42.630;23.378;2022-08-21T05:57:37;21.95;72.32
70234;DHT22;57622;42.630;23.378;2022-08-21T06:00:07;21.92;72.60
70234;DHT22;57622;42.630;23.378;2022-08-21T06:02:34;21.91;71.55
70234;DHT22;57622;42.630;23.378;2022-08-21T06:05:00;22.06;70.61
70234;DHT22;57622;42.630;23.378;2022-08-21T06:07:26;22.09;71.00
70234;DHT22;57622;42.630;23.378;2022-08-21T06:09:51;22.28;70.98
70234;DHT22;57622;42.630;23.378;2022-08-21T06:12:17;22.44;71.29
70234;DHT22;57622;42.630;23.378;2022-08-21T06:14:42;22.46;70.72
70234;DHT22;57622;42.630;23.378;2022-08-21T06:17:10;22.57;71.11
70234;DHT22;57622;42.630;23.378;2022-08-21T06:19:37;22.65;71.25
70234;DHT22;57622;42.630;23.378;2022-08-21T06:22:03;22.63;70.64
70234;DHT22;57622;42.630;23.378;2022-08-21T06:24:28;22.78;70.10
70234;DHT22;57622;42.630;23.378;2022-08-21T06:26:54;23.01;69.23
70234;DHT22;57622;42.630;23.378;2022-08-21T06:29:20;23.04;68.51
70234;DHT22;57622;42.630;23.378;2022-08-21T06:31:50;23.07;68.21
70234;DHT22;57622;42.630;23.378;2022-08-21T06:34:17;23.14;67.03
70234;DHT22;57622;42.630;23.378;2022-08-21T06:36:43;23.43;66.76
70234;DHT22;57622;42.630;23.378;2022-08-21T06:39:09;23.60;67.57
70234;DHT22;57622;42.630;23.378;2022-08-21T06:41:34;23.60;65.94
70234;DHT22;57622;42.630;23.378;2022-08-21T06:44:01;23.55;67.36
70234;DHT22;57622;42.630;23.378;2022-08-21T06:46:29;23.71;65.92
70234;DHT22;57622;42.630;23.378;2022-08-21T06:48:55;23.58;67.82
70234;DHT22;57622;42.630;23.378;2022-08-21T06:51:21;23.62;68.57
70234;DHT22;57622;42.630;23.378;2022-08-21T06:53:48;23.80;67.37
70234;DHT22;57622;42.630;23.378;2022-08-21T06:56:14;24.00;68.93
70234;DHT22;57622;42.630;23.378;2022-08-21T06:58:40;24.30;66.67
70234;DHT22;57622;42.630;23.378;2022-08-21T07:01:06;24.37;65.49
70234;DHT22;57622;42.630;23.378;2022-08-21T07:03:37;24.61;65.96
70234;DHT22;57622;42.630;23.378;2022-08-21T07:06:07;24.51;65.30
70234;DHT22;57622;42.630;23.378;2022-08-21T07:08:34;24.55;65.74
70234;DHT22;57622;42.630;23.378;2022-08-21T07:11:02;24.51;65.39
70234;DHT22;57622;42.630;23.378;2022-08-21T07:13:28;24.51;64.72
70234;DHT22;57622;42.630;23.378;2022-08-21T07:15:53;24.37;65.32
70234;DHT22;57622;42.630;23.378;2022-08-21T07:18:19;24.55;65.64
70234;DHT22;57622;42.630;23.378;2022-08-21T07:20:45;24.42;65.04
70234;DHT22;57622;42.630;23.378;2022-08-21T07:23:18;24.47;65.12
70234;DHT22;57622;42.630;23.378;2022-08-21T07:25:46;24.28;65.01
70234;DHT22;57622;42.630;23.378;2022-08-21T07:28:11;24.24;64.86
70234;DHT22;57622;42.630;23.378;2022-08-21T07:30:37;24.17;64.76
70234;DHT22;57622;42.630;23.378;2022-08-21T07:33:02;24.22;64.45
70234;DHT22;57622;42.630;23.378;2022-08-21T07:35:28;24.21;64.57
70234;DHT22;57622;42.630;23.378;2022-08-21T07:37:53;24.16;64.58
70234;DHT22;57622;42.630;23.378;2022-08-21T07:40:19;24.21;64.36
70234;DHT22;57622;42.630;23.378;2022-08-21T07:42:48;24.11;64.64
70234;DHT22;57622;42.630;23.378;2022-08-21T07:45:20;24.16;65.46
70234;DHT22;57622;42.630;23.378;2022-08-21T07:47:47;24.28;64.12
70234;DHT22;57622;42.630;23.378;2022-08-21T07:50:13;24.03;64.02
70234;DHT22;57622;42.630;23.378;2022-08-21T07:52:40;23.93;64.23
70234;DHT22;57622;42.630;23.378;2022-08-21T07:55:07;24.04;64.94
70234;DHT22;57622;42.630;23.378;2022-08-21T07:57:33;24.07;65.19
70234;DHT22;57622;42.630;23.378;2022-08-21T07:59:58;24.42;65.08
70234;DHT22;57622;42.630;23.378;2022-08-21T08:02:26;24.59;63.95
70234;DHT22;57622;42.630;23.378;2022-08-21T08:04:52;24.59;64.21
70234;DHT22;57622;42.630;23.378;2022-08-21T08:07:18;24.58;62.70
70234;DHT22;57622;42.630;23.378;2022-08-21T08:09:44;24.39;63.56
70234;DHT22;57622;42.630;23.378;2022-08-21T08:12:09;24.49;62.86
70234;DHT22;57622;42.630;23.378;2022-08-21T08:14:35;24.57;62.13
70234;DHT22;57622;42.630;23.378;2022-08-21T08:17:01;24.59;62.38
70234;DHT22;57622;42.630;23.378;2022-08-21T08:19:27;24.55;62.21
70234;DHT22;57622;42.630;23.378;2022-08-21T08:21:53;24.41;62.13
70234;DHT22;57622;42.630;23.378;2022-08-21T08:24:18;24.34;62.52
70234;DHT22;57622;42.630;23.378;2022-08-21T08:26:44;24.31;62.69
70234;DHT22;57622;42.630;23.378;2022-08-21T08:29:09;24.37;63.26
70234;DHT22;57622;42.630;23.378;2022-08-21T08:31:35;24.37;63.82
70234;DHT22;57622;42.630;23.378;2022-08-21T08:34:00;24.35;62.54
70234;DHT22;57622;42.630;23.378;2022-08-21T08:36:36;24.39;62.15
70234;DHT22;57622;42.630;23.378;2022-08-21T08:39:04;24.42;62.55
70234;DHT22;57622;42.630;23.378;2022-08-21T08:41:30;24.48;62.83
70234;DHT22;57622;42.630;23.378;2022-08-21T08:44:03;24.30;62.14
70234;DHT22;57622;42.630;23.378;2022-08-21T08:46:40;24.44;62.13
70234;DHT22;57622;42.630;23.378;2022-08-21T08:49:13;24.49;61.47
70234;DHT22;57622;42.630;23.378;2022-08-21T08:51:50;24.65;62.26
70234;DHT22;57622;42.630;23.378;2022-08-21T08:54:31;24.72;60.85
70234;DHT22;57622;42.630;23.378;2022-08-21T08:57:03;24.72;61.48
70234;DHT22;57622;42.630;23.378;2022-08-21T08:59:38;24.75;61.70
70234;DHT22;57622;42.630;23.378;2022-08-21T09:02:05;24.80;61.28
70234;DHT22;57622;42.630;23.378;2022-08-21T09:04:30;24.85;60.37
70234;DHT22;57622;42.630;23.378;2022-08-21T09:07:17;24.83;60.37
70234;DHT22;57622;42.630;23.378;2022-08-21T09:15:19;24.18;61.13
70234;DHT22;57622;42.630;23.378;2022-08-21T09:21:16;24.51;61.36
70234;DHT22;57622;42.630;23.378;2022-08-21T09:26:17;24.97;60.75
70234;DHT22;57622;42.630;23.378;2022-08-21T09:28:43;25.22;60.59
70234;DHT22;57622;42.630;23.378;2022-08-21T09:31:34;25.40;60.28
70234;DHT22;57622;42.630;23.378;2022-08-21T09:34:03;25.53;59.52
70234;DHT22;57622;42.630;23.378;2022-08-21T09:36:49;25.85;59.00
70234;DHT22;57622;42.630;23.378;2022-08-21T09:39:28;25.98;59.02
70234;DHT22;57622;42.630;23.378;2022-08-21T09:42:02;25.88;58.32
70234;DHT22;57622;42.630;23.378;2022-08-21T09:44:33;25.84;57.89
70234;DHT22;57622;42.630;23.378;2022-08-21T09:46:59;25.75;58.30
70234;DHT22;57622;42.630;23.378;2022-08-21T09:49:35;25.77;58.12
70234;DHT22;57622;42.630;23.378;2022-08-21T09:52:02;25.78;57.97
70234;DHT22;57622;42.630;23.378;2022-08-21T09:54:35;25.48;58.56
70234;DHT22;57622;42.630;23.378;2022-08-21T09:57:16;25.43;59.04
70234;DHT22;57622;42.630;23.378;2022-08-21T10:00:26;25.37;59.17
70234;DHT22;57622;42.630;23.378;2022-08-21T10:02:52;25.28;59.04
70234;DHT22;57622;42.630;23.378;2022-08-21T10:05:24;24.90;59.62
70234;DHT22;57622;42.630;23.378;2022-08-21T10:07:50;24.82;60.03
70234;DHT22;57622;42.630;23.378;2022-08-21T10:10:21;24.86;59.72
70234;DHT22;57622;42.630;23.378;2022-08-21T10:13:17;24.71;60.47
70234;DHT22;57622;42.630;23.378;2022-08-21T10:18:48;24.62;60.62
70234;DHT22;57622;42.630;23.378;2022-08-21T10:29:55;24.51;60.98
70234;DHT22;57622;42.630;23.378;2022-08-21T10:35:19;24.85;59.88
70234;DHT22;57622;42.630;23.378;2022-08-21T10:40:51;25.09;59.53
70234;DHT22;57622;42.630;23.378;2022-08-21T10:43:34;24.86;59.78
70234;DHT22;57622;42.630;23.378;2022-08-21T10:48:36;25.36;58.77
70234;DHT22;57622;42.630;23.378;2022-08-21T10:56:36;26.40;58.20
70234;DHT22;57622;42.630;23.378;2022-08-21T11:04:21;27.28;51.79
70234;DHT22;57622;42.630;23.378;2022-08-21T11:07:02;27.58;53.48
70234;DHT22;57622;42.630;23.378;2022-08-21T11:09:28;27.83;52.45
70234;DHT22;57622;42.630;23.378;2022-08-21T11:11:58;28.13;51.28
70234;DHT22;57622;42.630;23.378;2022-08-21T11:17:16;28.34;49.13
70234;DHT22;57622;42.630;23.378;2022-08-21T11:22:50;28.03;50.68
70234;DHT22;57622;42.630;23.378;2022-08-21T11:25:26;27.65;50.36
70234;DHT22;57622;42.630;23.378;2022-08-21T11:27:58;27.31;52.30
70234;DHT22;57622;42.630;23.378;2022-08-21T11:30:28;27.30;52.78
70234;DHT22;57622;42.630;23.378;2022-08-21T11:35:52;27.43;51.81
70234;DHT22;57622;42.630;23.378;2022-08-21T11:38:27;27.07;52.99
70234;DHT22;57622;42.630;23.378;2022-08-21T11:43:45;26.77;53.75
70234;DHT22;57622;42.630;23.378;2022-08-21T11:46:57;26.57;53.82
70234;DHT22;57622;42.630;23.378;2022-08-21T11:57:28;26.18;54.27
70234;DHT22;57622;42.630;23.378;2022-08-21T12:02:23;26.13;54.56
70234;DHT22;57622;42.630;23.378;2022-08-21T12:04:55;26.18;54.93
70234;DHT22;57622;42.630;23.378;2022-08-21T12:07:35;26.21;55.03
70234;DHT22;57622;42.630;23.378;2022-08-21T12:10:04;26.32;55.02
70234;DHT22;57622;42.630;23.378;2022-08-21T12:12:34;26.28;54.98
70234;DHT22;57622;42.630;23.378;2022-08-21T12:18:05;26.04;54.28
70234;DHT22;57622;42.630;23.378;2022-08-21T12:25:36;25.27;56.45
70234;DHT22;57622;42.630;23.378;2022-08-21T12:28:07;25.23;56.77
70234;DHT22;57622;42.630;23.378;2022-08-21T12:30:36;25.16;56.90
70234;DHT22;57622;42.630;23.378;2022-08-21T12:35:47;25.28;57.71
70234;DHT22;57622;42.630;23.378;2022-08-21T12:38:28;25.28;57.19
70234;DHT22;57622;42.630;23.378;2022-08-21T12:43:30;25.36;57.49
70234;DHT22;57622;42.630;23.378;2022-08-21T12:45:56;25.20;57.91
70234;DHT22;57622;42.630;23.378;2022-08-21T12:48:33;25.12;58.74
70234;DHT22;57622;42.630;23.378;2022-08-21T12:51:15;24.83;59.82
70234;DHT22;57622;42.630;23.378;2022-08-21T12:53:53;24.61;60.73
70234;DHT22;57622;42.630;23.378;2022-08-21T12:56:21;24.61;60.71
70234;DHT22;57622;42.630;23.378;2022-08-21T12:59:00;24.54;61.63
70234;DHT22;57622;42.630;23.378;2022-08-21T13:04:03;24.58;61.05
70234;DHT22;57622;42.630;23.378;2022-08-21T13:06:37;24.37;61.46
70234;DHT22;57622;42.630;23.378;2022-08-21T13:09:08;24.21;62.48
70234;DHT22;57622;42.630;23.378;2022-08-21T13:11:35;24.41;61.88
70234;DHT22;57622;42.630;23.378;2022-08-21T13:14:02;24.35;61.91
70234;DHT22;57622;42.630;23.378;2022-08-21T13:16:29;24.37;61.62
70234;DHT22;57622;42.630;23.378;2022-08-21T13:18:57;24.38;62.33
70234;DHT22;57622;42.630;23.378;2022-08-21T13:21:28;24.47;61.76
70234;DHT22;57622;42.630;23.378;2022-08-21T13:23:54;24.39;62.10
70234;DHT22;57622;42.630;23.378;2022-08-21T13:26:21;24.52;61.91
70234;DHT22;57622;42.630;23.378;2022-08-21T13:28:48;24.42;62.60
70234;DHT22;57622;42.630;23.378;2022-08-21T13:31:25;24.45;62.48
70234;DHT22;57622;42.630;23.378;2022-08-21T13:33:53;24.44;63.19
70234;DHT22;57622;42.630;23.378;2022-08-21T13:36:27;24.31;63.78
70234;DHT22;57622;42.630;23.378;2022-08-21T13:38:54;24.14;64.32
70234;DHT22;57622;42.630;23.378;2022-08-21T13:41:24;24.16;64.88
70234;DHT22;57622;42.630;23.378;2022-08-21T13:43:58;24.07;65.29
70234;DHT22;57622;42.630;23.378;2022-08-21T13:46:27;24.03;65.71
70234;DHT22;57622;42.630;23.378;2022-08-21T13:48:54;23.94;66.10
70234;DHT22;57622;42.630;23.378;2022-08-21T13:51:21;23.84;66.85
70234;DHT22;57622;42.630;23.378;2022-08-21T13:53:49;23.81;67.44
70234;DHT22;57622;42.630;23.378;2022-08-21T13:56:43;23.74;67.87
70234;DHT22;57622;42.630;23.378;2022-08-21T13:59:09;23.65;68.12
70234;DHT22;57622;42.630;23.378;2022-08-21T14:01:38;23.63;68.20
70234;DHT22;57622;42.630;23.378;2022-08-21T14:04:26;23.60;67.99
70234;DHT22;57622;42.630;23.378;2022-08-21T14:06:53;23.55;68.11
70234;DHT22;57622;42.630;23.378;2022-08-21T14:09:39;23.71;67.27
70234;DHT22;57622;42.630;23.378;2022-08-21T14:14:49;23.59;67.44
70234;DHT22;57622;42.630;23.378;2022-08-21T14:17:28;23.63;67.67
70234;DHT22;57622;42.630;23.378;2022-08-21T14:19:53;23.56;67.93
70234;DHT22;57622;42.630;23.378;2022-08-21T14:24:48;23.90;66.48
70234;DHT22;57622;42.630;23.378;2022-08-21T14:27:17;24.04;66.19
70234;DHT22;57622;42.630;23.378;2022-08-21T14:29:42;24.11;66.00
70234;DHT22;57622;42.630;23.378;2022-08-21T14:32:20;24.41;65.25
70234;DHT22;57622;42.630;23.378;2022-08-21T14:34:46;24.45;64.89
70234;DHT22;57622;42.630;23.378;2022-08-21T14:37:11;24.54;64.01
70234;DHT22;57622;42.630;23.378;2022-08-21T14:39:37;24.67;64.30
70234;DHT22;57622;42.630;23.378;2022-08-21T14:42:02;24.59;64.23
70234;DHT22;57622;42.630;23.378;2022-08-21T14:44:28;24.75;64.26
70234;DHT22;57622;42.630;23.378;2022-08-21T14:46:55;24.76;63.87
70234;DHT22;57622;42.630;23.378;2022-08-21T14:49:21;24.78;64.11
70234;DHT22;57622;42.630;23.378;2022-08-21T14:51:46;24.88;63.73
70234;DHT22;57622;42.630;23.378;2022-08-21T14:54:12;24.97;63.34
70234;DHT22;57622;42.630;23.378;2022-08-21T14:56:37;25.00;63.41
70234;DHT22;57622;42.630;23.378;2022-08-21T14:59:06;25.09;63.77
70234;DHT22;57622;42.630;23.378;2022-08-21T15:01:35;25.13;64.01
70234;DHT22;57622;42.630;23.378;2022-08-21T15:04:01;25.15;63.99
70234;DHT22;57622;42.630;23.378;2022-08-21T15:06:27;25.13;64.23
70234;DHT22;57622;42.630;23.378;2022-08-21T15:08:52;25.17;64.00
70234;DHT22;57622;42.630;23.378;2022-08-21T15:11:20;25.09;64.30
70234;DHT22;57622;42.630;23.378;2022-08-21T15:13:47;25.09;63.69
70234;DHT22;57622;42.630;23.378;2022-08-21T15:16:14;25.05;63.55
70234;DHT22;57622;42.630;23.378;2022-08-21T15:18:40;24.99;63.38
70234;DHT22;57622;42.630;23.378;2022-08-21T15:21:07;24.92;63.32
70234;DHT22;57622;42.630;23.378;2022-08-21T15:23:33;24.83;63.62
70234;DHT22;57622;42.630;23.378;2022-08-21T15:25:58;24.78;63.66
70234;DHT22;57622;42.630;23.378;2022-08-21T15:28:24;24.83;63.52
70234;DHT22;57622;42.630;23.378;2022-08-21T15:30:51;24.71;63.94
70234;DHT22;57622;42.630;23.378;2022-08-21T15:33:17;24.73;63.75
70234;DHT22;57622;42.630;23.378;2022-08-21T15:35:43;24.76;63.82
70234;DHT22;57622;42.630;23.378;2022-08-21T15:38:11;24.71;63.73
70234;DHT22;57622;42.630;23.378;2022-08-21T15:40:38;24.68;63.64
70234;DHT22;57622;42.630;23.378;2022-08-21T15:43:04;24.58;63.63
70234;DHT22;57622;42.630;23.378;2022-08-21T15:45:30;24.28;64.24
70234;DHT22;57622;42.630;23.378;2022-08-21T15:47:56;24.32;63.99
70234;DHT22;57622;42.630;23.378;2022-08-21T15:50:22;24.34;63.93
70234;DHT22;57622;42.630;23.378;2022-08-21T15:52:48;24.32;64.17
70234;DHT22;57622;42.630;23.378;2022-08-21T15:55:13;24.28;64.33
70234;DHT22;57622;42.630;23.378;2022-08-21T15:57:47;24.22;65.02
70234;DHT22;57622;42.630;23.378;2022-08-21T16:00:17;24.18;65.03
70234;DHT22;57622;42.630;23.378;2022-08-21T16:02:46;24.10;65.01
70234;DHT22;57622;42.630;23.378;2022-08-21T16:05:13;24.14;64.48
70234;DHT22;57622;42.630;23.378;2022-08-21T16:07:42;24.11;63.67
70234;DHT22;57622;42.630;23.378;2022-08-21T16:10:07;24.08;63.70
70234;DHT22;57622;42.630;23.378;2022-08-21T16:12:41;24.11;63.93
70234;DHT22;57622;42.630;23.378;2022-08-21T16:15:09;24.22;63.70
70234;DHT22;57622;42.630;23.378;2022-08-21T16:17:37;24.28;64.19
70234;DHT22;57622;42.630;23.378;2022-08-21T16:20:07;24.39;64.15
70234;DHT22;57622;42.630;23.378;2022-08-21T16:22:32;24.51;63.81
70234;DHT22;57622;42.630;23.378;2022-08-21T16:24:58;24.58;63.74
70234;DHT22;57622;42.630;23.378;2022-08-21T16:27:23;24.57;63.79
70234;DHT22;57622;42.630;23.378;2022-08-21T16:29:49;24.57;63.75
70234;DHT22;57622;42.630;23.378;2022-08-21T16:32:15;24.57;63.73
70234;DHT22;57622;42.630;23.378;2022-08-21T16:34:44;24.58;63.68
70234;DHT22;57622;42.630;23.378;2022-08-21T16:37:11;24.64;63.65
70234;DHT22;57622;42.630;23.378;2022-08-21T16:39:37;24.64;63.36
70234;DHT22;57622;42.630;23.378;2022-08-21T16:42:03;24.59;63.35
70234;DHT22;57622;42.630;23.378;2022-08-21T16:44:29;24.57;63.68
70234;DHT22;57622;42.630;23.378;2022-08-21T16:46:54;24.57;63.88
70234;DHT22;57622;42.630;23.378;2022-08-21T16:49:20;24.47;64.07